sensor_id;sensor_type;location;lat;lon;timestamp;temperature;humidity
7129;DHT22;3606;52.930;8.644;2023-08-08T00:01:32;12.10;99.90
7129;DHT22;3606;52.930;8.644;2023-08-08T00:03:57;12.20;99.90
7129;DHT22;3606;52.930;8.644;2023-08-08T00:06:23;12.20;99.90
7129;DHT22;3606;52.930;8.644;2023-08-08T00:08:48;12.20;99.90
7129;DHT22;3606;52.930;8.644;2023-08-08T00:11:14;12.30;99.90
7129;DHT22;3606;52.930;8.644;2023-08-08T00:13:39;12.30;99.90
7129;DHT22;3606;52.930;8.644;2023-08-08T00:16:05;12.20;99.90
7129;DHT22;3606;52.930;8.644;2023-08-08T00:18:31;12.20;99.90
7129;DHT22;3606;52.930;8.644;2023-08-08T00:20:56;12.10;99.90
7129;DHT22;3606;52.930;8.644;2023-08-08T00:23:22;12.10;99.90
7129;DHT22;3606;52.930;8.644;2023-08-08T00:25:47;12.20;99.90
7129;DHT22;3606;52.930;8.644;2023-08-08T00:28:17;12.20;99.90
7129;DHT22;3606;52.930;8.644;2023-08-08T00:30:43;12.30;99.90
7129;DHT22;3606;52.930;8.644;2023-08-08T00:33:08;12.30;99.90
7129;DHT22;3606;52.930;8.644;2023-08-08T00:35:34;12.40;99.90
7129;DHT22;3606;52.930;8.644;2023-08-08T00:37:59;12.40;99.90
7129;DHT22;3606;52.930;8.644;2023-08-08T00:40:25;12.40;99.90
7129;DHT22;3606;52.930;8.644;2023-08-08T00:42:50;12.40;99.90
7129;DHT22;3606;52.930;8.644;2023-08-08T00:45:16;12.30;99.90
7129;DHT22;3606;52.930;8.644;2023-08-08T00:47:42;12.20;99.90
7129;DHT22;3606;52.930;8.644;2023-08-08T00:50:08;12.20;99.90
7129;DHT22;3606;52.930;8.644;2023-08-08T00:52:36;12.20;99.90
7129;DHT22;3606;52.930;8.644;2023-08-08T00:55:03;12.10;99.90
7129;DHT22;3606;52.930;8.644;2023-08-08T00:57:29;12.10;99.90
7129;DHT22;3606;52.930;8.644;2023-08-08T00:59:54;12.10;99.90
7129;DHT22;3606;52.930;8.644;2023-08-08T01:02:20;12.10;99.90
7129;DHT22;3606;52.930;8.644;2023-08-08T01:04:45;12.10;99.90
7129;DHT22;3606;52.930;8.644;2023-08-08T01:10:12;12.20;99.90
7129;DHT22;3606;52.930;8.644;2023-08-08T01:12:42;12.30;99.90
7129;DHT22;3606;52.930;8.644;2023-08-08T01:15:10;12.20;99.90
7129;DHT22;3606;52.930;8.644;2023-08-08T01:17:37;12.20;99.90
7129;DHT22;3606;52.930;8.644;2023-08-08T01:20:04;12.20;99.90
7129;DHT22;3606;52.930;8.644;2023-08-08T01:22:37;12.20;99.90
7129;DHT22;3606;52.930;8.644;2023-08-08T01:25:04;12.20;99.90
7129;DHT22;3606;52.930;8.644;2023-08-08T01:27:30;12.30;99.90
7129;DHT22;3606;52.930;8.644;2023-08-08T01:29:56;12.30;99.90
7129;DHT22;3606;52.930;8.644;2023-08-08T01:32:21;12.20;99.90
7129;DHT22;3606;52.930;8.644;2023-08-08T01:34:47;12.20;99.90
7129;DHT22;3606;52.930;8.644;2023-08-08T01:37:34;12.20;99.90
7129;DHT22;3606;52.930;8.644;2023-08-08T01:40:01;12.20;99.90
7129;DHT22;3606;52.930;8.644;2023-08-08T01:42:28;12.20;99.90
7129;DHT22;3606;52.930;8.644;2023-08-08T01:44:55;12.20;99.90
7129;DHT22;3606;52.930;8.644;2023-08-08T01:47:21;12.30;99.90
7129;DHT22;3606;52.930;8.644;2023-08-08T01:49:47;12.40;99.90
7129;DHT22;3606;52.930;8.644;2023-08-08T01:52:13;12.40;99.90
7129;DHT22;3606;52.930;8.644;2023-08-08T01:54:39;12.40;99.90
7129;DHT22;3606;52.930;8.644;2023-08-08T01:57:05;12.40;99.90
7129;DHT22;3606;52.930;8.644;2023-08-08T01:59:30;12.40;99.90
7129;DHT22;3606;52.930;8.644;2023-08-08T02:01:56;12.40;99.90
7129;DHT22;3606;52.930;8.644;2023-08-08T02:04:21;12.30;99.90
7129;DHT22;3606;52.930;8.644;2023-08-08T02:06:47;12.30;99.90
7129;DHT22;3606;52.930;8.644;2023-08-08T02:09:12;12.30;99.90
7129;DHT22;3606;52.930;8.644;2023-08-08T02:11:41;12.30;99.90
7129;DHT22;3606;52.930;8.644;2023-08-08T02:14:06;12.30;99.90
7129;DHT22;3606;52.930;8.644;2023-08-08T02:16:32;12.30;99.90
7129;DHT22;3606;52.930;8.644;2023-08-08T02:18:57;12.30;99.90
7129;DHT22;3606;52.930;8.644;2023-08-08T02:21:23;12.40;99.90
7129;DHT22;3606;52.930;8.644;2023-08-08T02:23:49;12.30;99.90
7129;DHT22;3606;52.930;8.644;2023-08-08T02:26:14;12.30;99.90
7129;DHT22;3606;52.930;8.644;2023-08-08T02:28:40;12.20;99.90
7129;DHT22;3606;52.930;8.644;2023-08-08T02:31:06;12.10;99.90
7129;DHT22;3606;52.930;8.644;2023-08-08T02:33:32;12.10;99.90
7129;DHT22;3606;52.930;8.644;2023-08-08T02:35:57;12.20;99.90
7129;DHT22;3606;52.930;8.644;2023-08-08T02:38:23;12.20;99.90
7129;DHT22;3606;52.930;8.644;2023-08-08T02:40:48;12.10;99.90
7129;DHT22;3606;52.930;8.644;2023-08-08T02:43:14;12.10;99.90
7129;DHT22;3606;52.930;8.644;2023-08-08T02:45:39;12.20;99.90
7129;DHT22;3606;52.930;8.644;2023-08-08T02:48:05;12.20;99.90
7129;DHT22;3606;52.930;8.644;2023-08-08T02:50:31;12.30;99.90
7129;DHT22;3606;52.930;8.644;2023-08-08T02:52:56;12.30;99.90
7129;DHT22;3606;52.930;8.644;2023-08-08T02:55:22;12.30;99.90
7129;DHT22;3606;52.930;8.644;2023-08-08T02:57:47;12.30;99.90
7129;DHT22;3606;52.930;8.644;2023-08-08T03:00:13;12.40;99.90
7129;DHT22;3606;52.930;8.644;2023-08-08T03:02:39;12.40;99.90
7129;DHT22;3606;52.930;8.644;2023-08-08T03:05:05;12.50;99.90
7129;DHT22;3606;52.930;8.644;2023-08-08T03:07:31;12.60;99.90
7129;DHT22;3606;52.930;8.644;2023-08-08T03:09:56;12.60;99.90
7129;DHT22;3606;52.930;8.644;2023-08-08T03:12:22;12.70;99.90
7129;DHT22;3606;52.930;8.644;2023-08-08T03:14:48;12.70;99.90
7129;DHT22;3606;52.930;8.644;2023-08-08T03:17:13;12.80;99.90
7129;DHT22;3606;52.930;8.644;2023-08-08T03:19:39;12.80;99.90
7129;DHT22;3606;52.930;8.644;2023-08-08T03:22:04;12.80;99.90
7129;DHT22;3606;52.930;8.644;2023-08-08T03:24:30;12.80;99.90
7129;DHT22;3606;52.930;8.644;2023-08-08T03:26:55;12.90;99.90
7129;DHT22;3606;52.930;8.644;2023-08-08T03:29:21;12.90;99.90
7129;DHT22;3606;52.930;8.644;2023-08-08T03:31:47;12.90;99.90
7129;DHT22;3606;52.930;8.644;2023-08-08T03:34:12;13.00;99.90
7129;DHT22;3606;52.930;8.644;2023-08-08T03:36:38;13.10;99.90
7129;DHT22;3606;52.930;8.644;2023-08-08T03:39:03;13.10;99.90
7129;DHT22;3606;52.930;8.644;2023-08-08T03:41:29;13.10;99.90
7129;DHT22;3606;52.930;8.644;2023-08-08T03:43:55;13.10;99.90
7129;DHT22;3606;52.930;8.644;2023-08-08T03:46:21;13.10;99.90
7129;DHT22;3606;52.930;8.644;2023-08-08T03:48:47;13.20;99.90
7129;DHT22;3606;52.930;8.644;2023-08-08T03:51:13;13.20;99.90
7129;DHT22;3606;52.930;8.644;2023-08-08T03:53:39;13.20;99.90
7129;DHT22;3606;52.930;8.644;2023-08-08T03:56:04;13.20;99.90
7129;DHT22;3606;52.930;8.644;2023-08-08T03:58:30;13.30;99.90
7129;DHT22;3606;52.930;8.644;2023-08-08T04:00:55;13.30;99.90
7129;DHT22;3606;52.930;8.644;2023-08-08T04:03:22;13.20;99.90
7129;DHT22;3606;52.930;8.644;2023-08-08T04:05:47;13.20;99.90
7129;DHT22;3606;52.930;8.644;2023-08-08T04:08:16;13.30;99.90
7129;DHT22;3606;52.930;8.644;2023-08-08T04:10:43;13.30;99.90
7129;DHT22;3606;52.930;8.644;2023-08-08T04:13:09;13.20;99.90
7129;DHT22;3606;52.930;8.644;2023-08-08T04:15:35;13.30;99.90
7129;DHT22;3606;52.930;8.644;2023-08-08T04:18:01;13.20;99.90
7129;DHT22;3606;52.930;8.644;2023-08-08T04:20:26;13.30;99.90
7129;DHT22;3606;52.930;8.644;2023-08-08T04:22:52;13.30;99.90
7129;DHT22;3606;52.930;8.644;2023-08-08T04:25:18;13.20;99.90
7129;DHT22;3606;52.930;8.644;2023-08-08T04:27:44;13.20;99.90
7129;DHT22;3606;52.930;8.644;2023-08-08T04:30:10;13.30;99.90
7129;DHT22;3606;52.930;8.644;2023-08-08T04:32:36;13.40;99.90
7129;DHT22;3606;52.930;8.644;2023-08-08T04:35:01;13.40;99.90
7129;DHT22;3606;52.930;8.644;2023-08-08T04:37:27;13.40;99.90
7129;DHT22;3606;52.930;8.644;2023-08-08T04:39:52;13.40;99.90
7129;DHT22;3606;52.930;8.644;2023-08-08T04:42:18;13.40;99.90
7129;DHT22;3606;52.930;8.644;2023-08-08T04:44:43;13.40;99.90
7129;DHT22;3606;52.930;8.644;2023-08-08T04:47:09;13.50;99.90
7129;DHT22;3606;52.930;8.644;2023-08-08T04:49:35;13.60;99.90
7129;DHT22;3606;52.930;8.644;2023-08-08T04:52:00;13.70;99.90
7129;DHT22;3606;52.930;8.644;2023-08-08T04:54:26;13.70;99.90
7129;DHT22;3606;52.930;8.644;2023-08-08T04:56:51;13.80;99.90
7129;DHT22;3606;52.930;8.644;2023-08-08T04:59:17;13.90;99.90
7129;DHT22;3606;52.930;8.644;2023-08-08T05:01:42;13.90;99.90
7129;DHT22;3606;52.930;8.644;2023-08-08T05:04:08;13.90;99.90
7129;DHT22;3606;52.930;8.644;2023-08-08T05:06:34;14.00;99.90
7129;DHT22;3606;52.930;8.644;2023-08-08T05:09:00;14.00;99.90
7129;DHT22;3606;52.930;8.644;2023-08-08T05:11:25;14.00;99.90
7129;DHT22;3606;52.930;8.644;2023-08-08T05:13:51;14.10;99.90
7129;DHT22;3606;52.930;8.644;2023-08-08T05:16:17;14.20;99.90
7129;DHT22;3606;52.930;8.644;2023-08-08T05:18:43;14.30;99.90
7129;DHT22;3606;52.930;8.644;2023-08-08T05:21:10;14.40;99.90
7129;DHT22;3606;52.930;8.644;2023-08-08T05:23:36;14.40;99.90
7129;DHT22;3606;52.930;8.644;2023-08-08T05:26:01;14.30;99.90
7129;DHT22;3606;52.930;8.644;2023-08-08T05:28:27;14.40;99.90
7129;DHT22;3606;52.930;8.644;2023-08-08T05:30:53;14.40;99.90
7129;DHT22;3606;52.930;8.644;2023-08-08T05:33:18;14.40;99.90
7129;DHT22;3606;52.930;8.644;2023-08-08T05:35:44;14.40;99.90
7129;DHT22;3606;52.930;8.644;2023-08-08T05:38:09;14.50;99.90
7129;DHT22;3606;52.930;8.644;2023-08-08T05:40:35;14.60;99.90
7129;DHT22;3606;52.930;8.644;2023-08-08T05:43:03;14.70;99.90
7129;DHT22;3606;52.930;8.644;2023-08-08T05:45:29;14.90;99.90
7129;DHT22;3606;52.930;8.644;2023-08-08T05:47:55;15.00;99.90
7129;DHT22;3606;52.930;8.644;2023-08-08T05:50:21;15.30;99.90
7129;DHT22;3606;52.930;8.644;2023-08-08T05:52:47;15.50;99.90
7129;DHT22;3606;52.930;8.644;2023-08-08T05:55:12;15.70;99.90
7129;DHT22;3606;52.930;8.644;2023-08-08T05:57:38;15.90;99.90
7129;DHT22;3606;52.930;8.644;2023-08-08T06:00:04;15.90;99.90
7129;DHT22;3606;52.930;8.644;2023-08-08T06:02:31;16.10;99.90
7129;DHT22;3606;52.930;8.644;2023-08-08T06:04:57;16.20;99.90
7129;DHT22;3606;52.930;8.644;2023-08-08T06:07:23;16.30;99.90
7129;DHT22;3606;52.930;8.644;2023-08-08T06:09:48;16.50;99.90
7129;DHT22;3606;52.930;8.644;2023-08-08T06:12:14;16.80;94.70
7129;DHT22;3606;52.930;8.644;2023-08-08T06:14:39;16.80;91.50
7129;DHT22;3606;52.930;8.644;2023-08-08T06:17:05;17.10;79.70
7129;DHT22;3606;52.930;8.644;2023-08-08T06:19:31;17.30;1.00
7129;DHT22;3606;52.930;8.644;2023-08-08T06:21:56;17.20;1.00
7129;DHT22;3606;52.930;8.644;2023-08-08T06:24:22;17.10;1.00
7129;DHT22;3606;52.930;8.644;2023-08-08T06:26:48;17.20;99.90
7129;DHT22;3606;52.930;8.644;2023-08-08T06:29:13;17.50;99.90
7129;DHT22;3606;52.930;8.644;2023-08-08T06:31:39;17.60;99.90
7129;DHT22;3606;52.930;8.644;2023-08-08T06:34:05;17.80;99.90
7129;DHT22;3606;52.930;8.644;2023-08-08T06:36:31;17.90;99.90
7129;DHT22;3606;52.930;8.644;2023-08-08T06:38:56;17.60;99.90
7129;DHT22;3606;52.930;8.644;2023-08-08T06:41:22;17.80;99.90
7129;DHT22;3606;52.930;8.644;2023-08-08T06:43:47;17.90;99.90
7129;DHT22;3606;52.930;8.644;2023-08-08T06:46:14;18.20;99.90
7129;DHT22;3606;52.930;8.644;2023-08-08T06:48:41;18.30;99.90
7129;DHT22;3606;52.930;8.644;2023-08-08T06:51:07;18.40;99.90
7129;DHT22;3606;52.930;8.644;2023-08-08T06:53:33;18.50;99.90
7129;DHT22;3606;52.930;8.644;2023-08-08T06:55:59;18.60;99.90
7129;DHT22;3606;52.930;8.644;2023-08-08T06:58:24;18.40;99.90
7129;DHT22;3606;52.930;8.644;2023-08-08T07:00:50;18.00;99.90
7129;DHT22;3606;52.930;8.644;2023-08-08T07:03:16;17.60;99.90
7129;DHT22;3606;52.930;8.644;2023-08-08T07:05:41;17.60;99.90
7129;DHT22;3606;52.930;8.644;2023-08-08T07:08:07;17.80;99.90
7129;DHT22;3606;52.930;8.644;2023-08-08T07:10:34;17.90;99.90
7129;DHT22;3606;52.930;8.644;2023-08-08T07:13:01;18.40;99.90
7129;DHT22;3606;52.930;8.644;2023-08-08T07:15:26;18.70;99.90
7129;DHT22;3606;52.930;8.644;2023-08-08T07:17:53;18.70;99.90
7129;DHT22;3606;52.930;8.644;2023-08-08T07:20:18;18.80;99.90
7129;DHT22;3606;52.930;8.644;2023-08-08T07:22:44;18.80;99.90
7129;DHT22;3606;52.930;8.644;2023-08-08T07:25:10;18.20;99.90
7129;DHT22;3606;52.930;8.644;2023-08-08T07:27:37;18.40;99.90
7129;DHT22;3606;52.930;8.644;2023-08-08T07:30:03;18.50;99.90
7129;DHT22;3606;52.930;8.644;2023-08-08T07:32:29;18.40;99.90
7129;DHT22;3606;52.930;8.644;2023-08-08T07:34:55;18.30;99.90
7129;DHT22;3606;52.930;8.644;2023-08-08T07:37:20;18.40;99.90
7129;DHT22;3606;52.930;8.644;2023-08-08T07:39:49;19.00;99.90
7129;DHT22;3606;52.930;8.644;2023-08-08T07:42:16;19.10;99.90
7129;DHT22;3606;52.930;8.644;2023-08-08T07:44:41;18.70;99.90
7129;DHT22;3606;52.930;8.644;2023-08-08T07:47:07;18.10;99.90
7129;DHT22;3606;52.930;8.644;2023-08-08T07:49:32;17.70;99.90
7129;DHT22;3606;52.930;8.644;2023-08-08T07:51:58;17.50;99.90
7129;DHT22;3606;52.930;8.644;2023-08-08T07:54:23;17.50;99.90
7129;DHT22;3606;52.930;8.644;2023-08-08T07:56:49;17.30;99.90
7129;DHT22;3606;52.930;8.644;2023-08-08T07:59:15;17.30;99.90
7129;DHT22;3606;52.930;8.644;2023-08-08T08:01:41;18.20;99.90
7129;DHT22;3606;52.930;8.644;2023-08-08T08:04:07;19.10;99.90
7129;DHT22;3606;52.930;8.644;2023-08-08T08:06:32;19.10;99.90
7129;DHT22;3606;52.930;8.644;2023-08-08T08:08:58;19.80;99.90
7129;DHT22;3606;52.930;8.644;2023-08-08T08:11:24;20.60;99.90
7129;DHT22;3606;52.930;8.644;2023-08-08T08:13:49;20.70;99.90
7129;DHT22;3606;52.930;8.644;2023-08-08T08:16:15;20.40;99.90
7129;DHT22;3606;52.930;8.644;2023-08-08T08:18:41;19.80;99.90
7129;DHT22;3606;52.930;8.644;2023-08-08T08:21:07;19.50;99.90
7129;DHT22;3606;52.930;8.644;2023-08-08T08:23:32;19.30;99.90
7129;DHT22;3606;52.930;8.644;2023-08-08T08:25:59;19.10;99.90
7129;DHT22;3606;52.930;8.644;2023-08-08T08:28:25;18.60;99.90
7129;DHT22;3606;52.930;8.644;2023-08-08T08:30:51;18.30;99.90
7129;DHT22;3606;52.930;8.644;2023-08-08T08:33:17;19.00;99.90
7129;DHT22;3606;52.930;8.644;2023-08-08T08:35:43;19.80;99.90
7129;DHT22;3606;52.930;8.644;2023-08-08T08:38:09;20.30;99.90
7129;DHT22;3606;52.930;8.644;2023-08-08T08:40:37;19.60;99.90
7129;DHT22;3606;52.930;8.644;2023-08-08T08:43:04;19.30;99.90
7129;DHT22;3606;52.930;8.644;2023-08-08T08:45:30;20.00;99.90
7129;DHT22;3606;52.930;8.644;2023-08-08T08:47:56;20.40;99.90
7129;DHT22;3606;52.930;8.644;2023-08-08T08:50:27;21.20;99.90
7129;DHT22;3606;52.930;8.644;2023-08-08T08:52:54;22.20;99.90
7129;DHT22;3606;52.930;8.644;2023-08-08T08:55:21;22.20;99.90
7129;DHT22;3606;52.930;8.644;2023-08-08T08:57:49;22.30;99.90
7129;DHT22;3606;52.930;8.644;2023-08-08T09:00:16;21.70;99.90
7129;DHT22;3606;52.930;8.644;2023-08-08T09:02:41;21.40;99.90
7129;DHT22;3606;52.930;8.644;2023-08-08T09:05:07;21.80;99.90
7129;DHT22;3606;52.930;8.644;2023-08-08T09:07:34;22.40;99.90
7129;DHT22;3606;52.930;8.644;2023-08-08T09:10:01;22.00;99.90
7129;DHT22;3606;52.930;8.644;2023-08-08T09:12:27;21.00;99.90
7129;DHT22;3606;52.930;8.644;2023-08-08T09:14:56;20.70;99.90
7129;DHT22;3606;52.930;8.644;2023-08-08T09:17:25;20.50;99.90
7129;DHT22;3606;52.930;8.644;2023-08-08T09:19:56;20.10;99.90
7129;DHT22;3606;52.930;8.644;2023-08-08T09:22:24;20.30;99.90
7129;DHT22;3606;52.930;8.644;2023-08-08T09:24:50;20.30;99.90
7129;DHT22;3606;52.930;8.644;2023-08-08T09:27:16;20.30;99.90
7129;DHT22;3606;52.930;8.644;2023-08-08T09:29:42;21.00;99.90
7129;DHT22;3606;52.930;8.644;2023-08-08T09:32:08;21.40;99.90
7129;DHT22;3606;52.930;8.644;2023-08-08T09:34:34;22.30;99.90
7129;DHT22;3606;52.930;8.644;2023-08-08T09:37:00;22.80;99.90
7129;DHT22;3606;52.930;8.644;2023-08-08T09:39:26;22.00;99.90
7129;DHT22;3606;52.930;8.644;2023-08-08T09:41:52;21.30;99.90
7129;DHT22;3606;52.930;8.644;2023-08-08T09:44:17;21.20;99.90
7129;DHT22;3606;52.930;8.644;2023-08-08T09:46:43;21.80;99.90
7129;DHT22;3606;52.930;8.644;2023-08-08T09:49:10;21.40;99.90
7129;DHT22;3606;52.930;8.644;2023-08-08T09:51:36;21.10;99.90
7129;DHT22;3606;52.930;8.644;2023-08-08T09:54:04;20.60;99.90
7129;DHT22;3606;52.930;8.644;2023-08-08T09:56:30;21.50;99.90
7129;DHT22;3606;52.930;8.644;2023-08-08T09:58:57;21.60;99.90
7129;DHT22;3606;52.930;8.644;2023-08-08T10:01:25;20.70;99.90
7129;DHT22;3606;52.930;8.644;2023-08-08T10:03:51;20.20;99.90
7129;DHT22;3606;52.930;8.644;2023-08-08T10:06:18;20.00;99.90
7129;DHT22;3606;52.930;8.644;2023-08-08T10:08:45;20.10;99.90
7129;DHT22;3606;52.930;8.644;2023-08-08T10:11:12;20.70;99.90
7129;DHT22;3606;52.930;8.644;2023-08-08T10:13:38;21.30;99.90
7129;DHT22;3606;52.930;8.644;2023-08-08T10:16:12;21.80;99.90
7129;DHT22;3606;52.930;8.644;2023-08-08T10:18:37;22.20;99.90
7129;DHT22;3606;52.930;8.644;2023-08-08T10:21:07;22.90;99.90
7129;DHT22;3606;52.930;8.644;2023-08-08T10:23:39;23.70;99.90
7129;DHT22;3606;52.930;8.644;2023-08-08T10:26:05;23.10;99.90
7129;DHT22;3606;52.930;8.644;2023-08-08T10:28:32;22.50;99.90
7129;DHT22;3606;52.930;8.644;2023-08-08T10:31:00;22.90;99.90
7129;DHT22;3606;52.930;8.644;2023-08-08T10:33:38;23.10;99.90
7129;DHT22;3606;52.930;8.644;2023-08-08T10:36:05;23.90;99.90
7129;DHT22;3606;52.930;8.644;2023-08-08T10:41:09;23.80;99.90
7129;DHT22;3606;52.930;8.644;2023-08-08T10:43:35;22.50;99.90
7129;DHT22;3606;52.930;8.644;2023-08-08T10:46:02;22.30;99.90
7129;DHT22;3606;52.930;8.644;2023-08-08T10:48:28;23.00;99.90
7129;DHT22;3606;52.930;8.644;2023-08-08T10:51:00;23.50;99.90
7129;DHT22;3606;52.930;8.644;2023-08-08T10:53:27;23.80;99.90
7129;DHT22;3606;52.930;8.644;2023-08-08T10:56:03;23.80;99.90
7129;DHT22;3606;52.930;8.644;2023-08-08T10:58:47;23.00;99.90
7129;DHT22;3606;52.930;8.644;2023-08-08T11:01:12;22.50;99.90
7129;DHT22;3606;52.930;8.644;2023-08-08T11:03:40;23.40;99.90
7129;DHT22;3606;52.930;8.644;2023-08-08T11:06:07;23.80;99.90
7129;DHT22;3606;52.930;8.644;2023-08-08T11:08:34;22.90;99.90
7129;DHT22;3606;52.930;8.644;2023-08-08T11:11:01;21.60;99.90
7129;DHT22;3606;52.930;8.644;2023-08-08T11:13:27;20.70;99.90
7129;DHT22;3606;52.930;8.644;2023-08-08T11:15:53;20.30;99.90
7129;DHT22;3606;52.930;8.644;2023-08-08T11:18:19;20.40;99.90
7129;DHT22;3606;52.930;8.644;2023-08-08T11:20:45;21.30;99.90
7129;DHT22;3606;52.930;8.644;2023-08-08T11:23:10;21.50;99.90
7129;DHT22;3606;52.930;8.644;2023-08-08T11:25:40;22.10;99.90
7129;DHT22;3606;52.930;8.644;2023-08-08T11:28:07;22.60;99.90
7129;DHT22;3606;52.930;8.644;2023-08-08T11:30:35;23.20;99.90
7129;DHT22;3606;52.930;8.644;2023-08-08T11:33:02;23.50;99.90
7129;DHT22;3606;52.930;8.644;2023-08-08T11:35:29;24.10;99.90
7129;DHT22;3606;52.930;8.644;2023-08-08T11:37:56;24.50;99.90
7129;DHT22;3606;52.930;8.644;2023-08-08T11:40:23;24.30;99.90
7129;DHT22;3606;52.930;8.644;2023-08-08T11:42:52;23.70;99.90
7129;DHT22;3606;52.930;8.644;2023-08-08T11:45:18;23.60;99.90
7129;DHT22;3606;52.930;8.644;2023-08-08T11:47:52;24.00;99.90
7129;DHT22;3606;52.930;8.644;2023-08-08T11:50:20;23.60;99.90
7129;DHT22;3606;52.930;8.644;2023-08-08T11:52:49;22.60;99.90
7129;DHT22;3606;52.930;8.644;2023-08-08T11:55:15;22.10;99.90
7129;DHT22;3606;52.930;8.644;2023-08-08T11:57:41;21.90;99.90
7129;DHT22;3606;52.930;8.644;2023-08-08T12:00:08;22.30;99.90
7129;DHT22;3606;52.930;8.644;2023-08-08T12:02:35;22.70;99.90
7129;DHT22;3606;52.930;8.644;2023-08-08T12:05:05;23.10;99.90
7129;DHT22;3606;52.930;8.644;2023-08-08T12:07:35;23.30;99.90
7129;DHT22;3606;52.930;8.644;2023-08-08T12:10:03;22.70;99.90
7129;DHT22;3606;52.930;8.644;2023-08-08T12:12:28;21.60;99.90
7129;DHT22;3606;52.930;8.644;2023-08-08T12:14:56;20.80;99.90
7129;DHT22;3606;52.930;8.644;2023-08-08T12:17:21;20.40;99.90
7129;DHT22;3606;52.930;8.644;2023-08-08T12:19:47;19.90;99.90
7129;DHT22;3606;52.930;8.644;2023-08-08T12:22:14;19.20;99.90
7129;DHT22;3606;52.930;8.644;2023-08-08T12:24:40;17.90;99.90
7129;DHT22;3606;52.930;8.644;2023-08-08T12:27:05;17.20;99.90
7129;DHT22;3606;52.930;8.644;2023-08-08T12:29:31;17.00;99.90
7129;DHT22;3606;52.930;8.644;2023-08-08T12:31:56;16.70;99.90
7129;DHT22;3606;52.930;8.644;2023-08-08T12:34:22;16.60;99.90
7129;DHT22;3606;52.930;8.644;2023-08-08T12:36:48;16.40;99.90
7129;DHT22;3606;52.930;8.644;2023-08-08T12:39:13;16.00;99.90
7129;DHT22;3606;52.930;8.644;2023-08-08T12:41:39;15.80;99.90
7129;DHT22;3606;52.930;8.644;2023-08-08T12:44:05;15.70;99.90
7129;DHT22;3606;52.930;8.644;2023-08-08T12:46:31;15.60;99.90
7129;DHT22;3606;52.930;8.644;2023-08-08T12:48:56;15.50;99.90
7129;DHT22;3606;52.930;8.644;2023-08-08T12:51:22;15.50;99.90
7129;DHT22;3606;52.930;8.644;2023-08-08T12:53:48;15.50;99.90
7129;DHT22;3606;52.930;8.644;2023-08-08T12:56:14;15.60;99.90
7129;DHT22;3606;52.930;8.644;2023-08-08T12:58:39;15.90;99.90
7129;DHT22;3606;52.930;8.644;2023-08-08T13:01:06;15.90;99.90
7129;DHT22;3606;52.930;8.644;2023-08-08T13:03:33;16.10;99.90
7129;DHT22;3606;52.930;8.644;2023-08-08T13:05:59;16.40;99.90
7129;DHT22;3606;52.930;8.644;2023-08-08T13:08:25;16.70;99.90
7129;DHT22;3606;52.930;8.644;2023-08-08T13:10:51;16.80;99.90
7129;DHT22;3606;52.930;8.644;2023-08-08T13:13:16;17.00;99.90
7129;DHT22;3606;52.930;8.644;2023-08-08T13:15:42;17.20;99.90
7129;DHT22;3606;52.930;8.644;2023-08-08T13:18:08;18.20;99.90
7129;DHT22;3606;52.930;8.644;2023-08-08T13:20:34;19.70;99.90
7129;DHT22;3606;52.930;8.644;2023-08-08T13:23:00;21.60;99.90
7129;DHT22;3606;52.930;8.644;2023-08-08T13:25:25;22.90;99.90
7129;DHT22;3606;52.930;8.644;2023-08-08T13:27:51;23.50;99.90
7129;DHT22;3606;52.930;8.644;2023-08-08T13:30:16;24.20;99.90
7129;DHT22;3606;52.930;8.644;2023-08-08T13:32:42;24.10;99.90
7129;DHT22;3606;52.930;8.644;2023-08-08T13:35:08;23.80;99.90
7129;DHT22;3606;52.930;8.644;2023-08-08T13:37:34;24.00;99.90
7129;DHT22;3606;52.930;8.644;2023-08-08T13:39:59;24.50;99.90
7129;DHT22;3606;52.930;8.644;2023-08-08T13:42:25;23.60;99.90
7129;DHT22;3606;52.930;8.644;2023-08-08T13:44:50;23.30;99.90
7129;DHT22;3606;52.930;8.644;2023-08-08T13:47:16;23.70;99.90
7129;DHT22;3606;52.930;8.644;2023-08-08T13:49:42;23.90;99.90
7129;DHT22;3606;52.930;8.644;2023-08-08T13:52:08;23.00;99.90
7129;DHT22;3606;52.930;8.644;2023-08-08T13:54:34;22.70;99.90
7129;DHT22;3606;52.930;8.644;2023-08-08T13:57:00;23.40;99.90
7129;DHT22;3606;52.930;8.644;2023-08-08T13:59:25;23.70;99.90
7129;DHT22;3606;52.930;8.644;2023-08-08T14:01:53;23.80;99.90
7129;DHT22;3606;52.930;8.644;2023-08-08T14:04:18;23.60;99.90
7129;DHT22;3606;52.930;8.644;2023-08-08T14:06:44;23.50;99.90
7129;DHT22;3606;52.930;8.644;2023-08-08T14:09:10;23.60;99.90
7129;DHT22;3606;52.930;8.644;2023-08-08T14:11:36;23.60;99.90
7129;DHT22;3606;52.930;8.644;2023-08-08T14:14:02;23.70;99.90
7129;DHT22;3606;52.930;8.644;2023-08-08T14:16:27;24.30;99.90
7129;DHT22;3606;52.930;8.644;2023-08-08T14:18:53;24.30;99.90
7129;DHT22;3606;52.930;8.644;2023-08-08T14:21:18;24.80;99.90
7129;DHT22;3606;52.930;8.644;2023-08-08T14:23:44;24.80;99.90
7129;DHT22;3606;52.930;8.644;2023-08-08T14:26:10;24.50;99.90
7129;DHT22;3606;52.930;8.644;2023-08-08T14:28:35;24.60;99.90
7129;DHT22;3606;52.930;8.644;2023-08-08T14:31:01;25.20;99.90
7129;DHT22;3606;52.930;8.644;2023-08-08T14:33:27;24.80;99.90
7129;DHT22;3606;52.930;8.644;2023-08-08T14:35:53;25.00;99.90
7129;DHT22;3606;52.930;8.644;2023-08-08T14:38:23;23.90;99.90
7129;DHT22;3606;52.930;8.644;2023-08-08T14:40:48;22.90;99.90
7129;DHT22;3606;52.930;8.644;2023-08-08T14:43:14;21.30;99.90
7129;DHT22;3606;52.930;8.644;2023-08-08T14:45:39;21.40;99.90
7129;DHT22;3606;52.930;8.644;2023-08-08T14:48:05;22.30;99.90
7129;DHT22;3606;52.930;8.644;2023-08-08T14:50:32;23.10;99.90
7129;DHT22;3606;52.930;8.644;2023-08-08T14:52:58;23.30;99.90
7129;DHT22;3606;52.930;8.644;2023-08-08T14:55:23;22.30;99.90
7129;DHT22;3606;52.930;8.644;2023-08-08T14:57:49;21.60;99.90
7129;DHT22;3606;52.930;8.644;2023-08-08T15:00:15;21.60;99.90
7129;DHT22;3606;52.930;8.644;2023-08-08T15:02:40;22.60;99.90
7129;DHT22;3606;52.930;8.644;2023-08-08T15:05:06;22.10;99.90
7129;DHT22;3606;52.930;8.644;2023-08-08T15:07:32;22.10;99.90
7129;DHT22;3606;52.930;8.644;2023-08-08T15:09:58;21.50;99.90
7129;DHT22;3606;52.930;8.644;2023-08-08T15:12:23;20.60;99.90
7129;DHT22;3606;52.930;8.644;2023-08-08T15:14:49;20.10;99.90
7129;DHT22;3606;52.930;8.644;2023-08-08T15:17:16;19.70;99.90
7129;DHT22;3606;52.930;8.644;2023-08-08T15:19:42;19.40;99.90
7129;DHT22;3606;52.930;8.644;2023-08-08T15:22:07;19.30;99.90
7129;DHT22;3606;52.930;8.644;2023-08-08T15:24:33;19.50;99.90
7129;DHT22;3606;52.930;8.644;2023-08-08T15:26:59;19.50;1.00
7129;DHT22;3606;52.930;8.644;2023-08-08T15:29:25;19.50;99.90
7129;DHT22;3606;52.930;8.644;2023-08-08T15:31:50;19.40;99.90
7129;DHT22;3606;52.930;8.644;2023-08-08T15:34:16;19.40;99.90
7129;DHT22;3606;52.930;8.644;2023-08-08T15:36:42;19.50;99.90
7129;DHT22;3606;52.930;8.644;2023-08-08T15:39:07;20.60;99.90
7129;DHT22;3606;52.930;8.644;2023-08-08T15:41:33;20.90;99.90
7129;DHT22;3606;52.930;8.644;2023-08-08T15:43:58;20.70;99.90
7129;DHT22;3606;52.930;8.644;2023-08-08T15:46:24;20.50;99.90
7129;DHT22;3606;52.930;8.644;2023-08-08T15:48:49;20.30;99.90
7129;DHT22;3606;52.930;8.644;2023-08-08T15:51:15;20.20;99.90
7129;DHT22;3606;52.930;8.644;2023-08-08T15:53:40;20.10;99.90
7129;DHT22;3606;52.930;8.644;2023-08-08T15:56:06;20.00;99.90
7129;DHT22;3606;52.930;8.644;2023-08-08T15:58:32;19.80;99.90
7129;DHT22;3606;52.930;8.644;2023-08-08T16:00:58;19.80;99.90